createdAt,value
2022-08-23T00:02:28.194Z,19.40
2022-08-23T00:05:08.167Z,24.50
2022-08-23T00:07:40.399Z,21.50
2022-08-23T00:10:16.469Z,20.50
2022-08-23T00:12:46.196Z,24.60
2022-08-23T00:15:17.224Z,21.30
2022-08-23T00:17:45.301Z,23.50
2022-08-23T00:20:17.114Z,21.10
2022-08-23T00:22:46.190Z,19.90
2022-08-23T00:25:16.275Z,22.50
2022-08-23T00:27:44.943Z,30.50
2022-08-23T00:30:15.372Z,18.90
2022-08-23T00:32:45.535Z,28.60
2022-08-23T00:35:26.659Z,21.30
2022-08-23T00:38:32.611Z,19.70
2022-08-23T00:40:51.904Z,23.70
2022-08-23T00:44:00.470Z,23.60
2022-08-23T00:47:14.715Z,27.40
2022-08-23T00:50:23.892Z,27.40
2022-08-23T00:53:23.952Z,23.30
2022-08-23T00:55:57.852Z,23.90
2022-08-23T00:58:27.370Z,27.70
2022-08-23T01:00:59.041Z,20.20
2022-08-23T01:03:30.733Z,28.00
2022-08-23T01:06:32.687Z,25.80
2022-08-23T01:09:08.517Z,29.40
2022-08-23T01:12:05.607Z,25.60
2022-08-23T01:14:41.087Z,22.20
2022-08-23T01:17:16.053Z,20.20
2022-08-23T01:19:56.525Z,20.40
2022-08-23T01:22:42.937Z,23.60
2022-08-23T01:25:14.134Z,24.80
2022-08-23T01:27:43.207Z,25.80
2022-08-23T01:30:13.615Z,27.40
2022-08-23T01:32:46.779Z,21.50
2022-08-23T01:35:17.564Z,18.70
2022-08-23T01:37:46.970Z,22.80
2022-08-23T01:40:14.958Z,35.70
2022-08-23T01:42:43.000Z,30.40
2022-08-23T01:45:13.143Z,46.40
2022-08-23T01:47:41.994Z,43.00
2022-08-23T01:50:13.041Z,38.90
2022-08-23T01:52:47.207Z,27.30
2022-08-23T01:55:17.377Z,21.30
2022-08-23T01:57:52.140Z,20.50
2022-08-23T02:00:23.838Z,17.80
2022-08-23T02:02:51.945Z,20.30
2022-08-23T02:05:20.260Z,24.30
2022-08-23T02:07:48.384Z,22.00
2022-08-23T02:10:16.553Z,30.00
2022-08-23T02:12:44.867Z,23.20
2022-08-23T02:15:14.097Z,26.80
2022-08-23T02:17:42.096Z,28.90
2022-08-23T02:20:10.872Z,27.30
2022-08-23T02:22:39.776Z,23.50
2022-08-23T02:25:08.271Z,29.30
2022-08-23T02:27:36.241Z,27.70
2022-08-23T02:30:05.265Z,26.10
2022-08-23T02:32:33.262Z,68.50
2022-08-23T02:35:05.137Z,25.20
2022-08-23T02:37:35.036Z,26.80
2022-08-23T02:40:05.803Z,24.20
2022-08-23T02:42:34.061Z,25.70
2022-08-23T02:45:02.384Z,37.00
2022-08-23T02:47:30.579Z,26.70
2022-08-23T02:49:58.638Z,22.90
2022-08-23T02:52:26.711Z,30.30
2022-08-23T02:54:58.233Z,25.00
2022-08-23T02:57:26.894Z,36.90
2022-08-23T02:59:55.442Z,28.60
2022-08-23T03:02:23.350Z,27.70
2022-08-23T03:04:51.367Z,26.10
2022-08-23T03:07:19.481Z,25.40
2022-08-23T03:09:47.358Z,25.60
2022-08-23T03:12:15.181Z,24.00
2022-08-23T03:14:43.058Z,35.80
2022-08-23T03:17:12.245Z,29.00
2022-08-23T03:19:40.200Z,25.70
2022-08-23T03:22:08.085Z,41.10
2022-08-23T03:24:36.584Z,35.50
2022-08-23T03:27:05.410Z,25.60
2022-08-23T03:29:34.149Z,26.20
2022-08-23T03:32:03.995Z,30.70
2022-08-23T03:34:32.555Z,27.60
2022-08-23T03:37:00.853Z,28.70
2022-08-23T03:39:29.005Z,24.70
2022-08-23T03:41:57.809Z,35.80
2022-08-23T03:44:25.808Z,33.00
2022-08-23T03:46:54.722Z,31.50
2022-08-23T03:49:22.732Z,31.30
2022-08-23T03:51:50.590Z,27.20
2022-08-23T03:54:18.415Z,34.10
2022-08-23T03:57:01.025Z,28.00
2022-08-23T03:59:31.426Z,28.30
2022-08-23T04:02:00.312Z,29.70
2022-08-23T04:04:28.627Z,29.20
2022-08-23T04:06:56.626Z,31.00
2022-08-23T04:09:24.736Z,29.70
2022-08-23T04:11:53.939Z,31.00
2022-08-23T04:14:21.886Z,33.40
2022-08-23T04:16:49.736Z,28.40
2022-08-23T04:19:17.726Z,34.80
2022-08-23T04:21:51.103Z,26.80
2022-08-23T04:24:19.985Z,33.60
2022-08-23T04:26:49.634Z,26.10
2022-08-23T04:29:23.000Z,30.60
2022-08-23T04:32:05.589Z,23.00
2022-08-23T04:34:40.530Z,26.60
2022-08-23T04:37:13.839Z,27.20
2022-08-23T04:40:00.843Z,23.50
2022-08-23T04:42:30.415Z,25.00
2022-08-23T04:44:58.319Z,26.40
2022-08-23T04:47:26.488Z,22.30
2022-08-23T04:49:54.310Z,26.30
2022-08-23T04:52:22.639Z,22.70
2022-08-23T04:54:50.587Z,28.10
2022-08-23T04:57:18.446Z,24.80
2022-08-23T04:59:46.286Z,22.10
2022-08-23T05:02:14.592Z,27.60
2022-08-23T05:04:42.595Z,30.90
2022-08-23T05:07:11.036Z,29.30
2022-08-23T05:09:39.219Z,24.30
2022-08-23T05:12:07.350Z,33.70
2022-08-23T05:14:35.326Z,28.20
2022-08-23T05:17:03.499Z,26.40
2022-08-23T05:19:33.616Z,30.20
2022-08-23T05:22:02.607Z,27.20
2022-08-23T05:24:30.886Z,31.90
2022-08-23T05:26:59.565Z,30.50
2022-08-23T05:29:27.650Z,30.50
2022-08-23T05:31:55.811Z,30.90
2022-08-23T05:34:24.090Z,30.20
2022-08-23T05:36:55.883Z,24.90
2022-08-23T05:39:30.397Z,24.30
2022-08-23T05:42:06.730Z,21.10
2022-08-23T05:44:36.305Z,26.20
2022-08-23T05:47:11.382Z,20.60
2022-08-23T05:49:41.086Z,25.80
2022-08-23T05:52:12.680Z,21.20
2022-08-23T05:54:42.448Z,19.20
2022-08-23T05:57:10.719Z,15.60
2022-08-23T05:59:40.450Z,22.70
2022-08-23T06:02:08.606Z,21.50
2022-08-23T06:04:36.784Z,19.80
2022-08-23T06:07:06.939Z,18.00
2022-08-23T06:09:35.169Z,19.40
2022-08-23T06:12:03.855Z,21.30
2022-08-23T06:14:31.944Z,16.10
2022-08-23T06:17:00.408Z,18.80
2022-08-23T06:19:28.706Z,15.20
2022-08-23T06:21:57.163Z,20.50
2022-08-23T06:24:26.885Z,18.10
2022-08-23T06:26:55.056Z,16.20
2022-08-23T06:29:23.155Z,22.40
2022-08-23T06:31:53.345Z,19.50
2022-08-23T06:34:33.815Z,16.40
2022-08-23T06:37:08.689Z,15.50
2022-08-23T06:39:38.446Z,18.30
2022-08-23T06:42:34.823Z,14.30
2022-08-23T06:44:59.185Z,18.30
2022-08-23T06:47:27.452Z,18.90
2022-08-23T06:49:58.137Z,17.00
2022-08-23T06:52:27.756Z,16.30
2022-08-23T06:54:55.913Z,19.10
2022-08-23T06:57:25.855Z,15.80
2022-08-23T06:59:53.909Z,18.80
2022-08-23T07:02:21.996Z,16.00
2022-08-23T07:04:54.317Z,15.60
2022-08-23T07:07:22.678Z,15.60
2022-08-23T07:09:50.680Z,21.30
2022-08-23T07:12:20.077Z,17.90
2022-08-23T07:14:48.234Z,15.40
2022-08-23T07:17:16.241Z,22.10
2022-08-23T07:19:44.280Z,15.10
2022-08-23T07:22:12.157Z,14.50
2022-08-23T07:24:40.049Z,16.40
2022-08-23T07:27:09.740Z,19.20
2022-08-23T07:29:39.844Z,17.70
2022-08-23T07:32:09.117Z,19.10
2022-08-23T07:34:37.685Z,20.30
2022-08-23T07:37:15.533Z,17.50
2022-08-23T07:39:44.684Z,18.50
2022-08-23T07:42:23.652Z,17.40
2022-08-23T07:44:53.592Z,18.50
2022-08-23T07:47:22.646Z,13.80
2022-08-23T07:49:51.212Z,18.90
2022-08-23T07:52:19.120Z,14.60
2022-08-23T07:54:48.478Z,19.40
2022-08-23T07:57:19.192Z,19.90
2022-08-23T07:59:47.909Z,15.80
2022-08-23T08:02:15.939Z,16.80
2022-08-23T08:04:44.519Z,19.10
2022-08-23T08:07:21.171Z,19.60
2022-08-23T08:09:49.730Z,18.80
2022-08-23T08:12:17.917Z,18.80
2022-08-23T08:14:48.563Z,18.30
2022-08-23T08:17:18.471Z,15.70
2022-08-23T08:19:46.691Z,18.20
2022-08-23T08:22:14.650Z,15.00
2022-08-23T08:24:44.145Z,13.30
2022-08-23T08:27:12.472Z,23.20
2022-08-23T08:29:42.174Z,12.40
2022-08-23T08:32:13.846Z,14.70
2022-08-23T08:34:42.736Z,16.00
2022-08-23T08:37:11.505Z,15.40
2022-08-23T08:39:45.872Z,18.20
2022-08-23T08:42:20.265Z,14.80
2022-08-23T08:45:20.305Z,17.00
2022-08-23T08:48:02.020Z,17.30
2022-08-23T08:50:43.428Z,19.10
2022-08-23T08:53:28.755Z,15.80
2022-08-23T08:56:32.194Z,17.20
2022-08-23T08:59:06.645Z,18.10
2022-08-23T09:01:38.215Z,17.70
2022-08-23T09:04:07.497Z,16.00
2022-08-23T09:06:58.985Z,16.80
2022-08-23T09:09:50.915Z,16.40
2022-08-23T09:12:51.505Z,16.90
2022-08-23T09:15:24.877Z,16.00
2022-08-23T09:17:57.633Z,18.80
2022-08-23T09:20:32.987Z,18.90
2022-08-23T09:23:22.016Z,17.30
2022-08-23T09:26:03.541Z,18.00
2022-08-23T09:28:37.157Z,17.50
2022-08-23T09:31:08.221Z,15.10
2022-08-23T09:33:42.971Z,19.00
2022-08-23T09:36:20.919Z,16.60
2022-08-23T09:38:58.111Z,13.60
2022-08-23T09:41:32.936Z,18.60
2022-08-23T09:44:02.769Z,16.80
2022-08-23T09:46:36.224Z,17.00
2022-08-23T09:49:28.201Z,14.30
2022-08-23T09:52:01.122Z,15.80
2022-08-23T09:54:37.672Z,20.20
2022-08-23T09:57:13.986Z,17.60
2022-08-23T09:59:47.811Z,15.60
2022-08-23T10:02:21.825Z,19.40
2022-08-23T10:04:52.542Z,15.80
2022-08-23T10:07:23.439Z,20.50
2022-08-23T10:09:51.492Z,20.80
2022-08-23T10:12:19.506Z,20.60
2022-08-23T10:14:47.965Z,21.30
2022-08-23T10:17:47.879Z,22.20
2022-08-23T10:20:22.448Z,21.50
2022-08-23T10:23:04.927Z,20.10
2022-08-23T10:25:49.555Z,25.00
2022-08-23T10:29:01.567Z,22.40
2022-08-23T10:31:58.968Z,27.50
2022-08-23T10:35:09.075Z,17.50
2022-08-23T10:38:13.089Z,21.60
2022-08-23T10:41:06.628Z,17.40
2022-08-23T10:44:09.336Z,22.00
2022-08-23T10:46:58.110Z,20.50
2022-08-23T10:49:28.836Z,17.30
2022-08-23T10:51:59.974Z,24.70
2022-08-23T10:54:47.428Z,19.10
2022-08-23T10:57:20.930Z,19.50
2022-08-23T10:59:52.170Z,27.70
2022-08-23T11:02:49.028Z,21.30
2022-08-23T11:05:27.999Z,20.50
2022-08-23T11:08:09.195Z,24.40
2022-08-23T11:10:39.845Z,23.70
2022-08-23T11:13:13.422Z,25.20
2022-08-23T11:16:03.665Z,26.70
2022-08-23T11:18:35.746Z,23.30
2022-08-23T11:21:05.555Z,28.00
2022-08-23T11:23:59.506Z,23.80
2022-08-23T11:26:27.622Z,26.20
2022-08-23T11:29:07.623Z,31.10
2022-08-23T11:31:45.218Z,24.90
2022-08-23T11:34:29.378Z,25.30
2022-08-23T11:37:21.144Z,25.10
2022-08-23T11:39:58.212Z,20.80
2022-08-23T11:42:38.249Z,28.80
2022-08-23T11:45:28.080Z,27.90
2022-08-23T11:48:22.945Z,20.30
2022-08-23T11:50:55.694Z,24.50
2022-08-23T11:53:47.923Z,23.40
2022-08-23T11:56:16.477Z,32.40
2022-08-23T11:59:03.583Z,42.80
2022-08-23T12:01:47.172Z,26.20
2022-08-23T12:04:37.655Z,33.30
2022-08-23T12:07:13.196Z,31.10
2022-08-23T12:09:44.208Z,23.90
2022-08-23T12:12:25.610Z,28.50
2022-08-23T12:15:02.239Z,32.40
2022-08-23T12:17:34.144Z,28.60
2022-08-23T12:20:22.795Z,25.40
2022-08-23T12:22:52.964Z,29.10
2022-08-23T12:25:22.810Z,26.50
2022-08-23T12:27:57.816Z,29.60
2022-08-23T12:30:46.991Z,27.50
2022-08-23T12:33:42.288Z,28.80
2022-08-23T12:36:31.917Z,29.60
2022-08-23T12:39:20.411Z,38.70
2022-08-23T12:41:48.725Z,39.60
2022-08-23T12:44:21.997Z,35.00
2022-08-23T12:46:51.435Z,37.20
2022-08-23T12:49:32.573Z,40.80
2022-08-23T12:52:06.559Z,34.60
2022-08-23T12:54:49.979Z,41.10
2022-08-23T12:57:22.077Z,31.30
2022-08-23T13:00:17.299Z,36.20
2022-08-23T13:03:10.501Z,35.90
2022-08-23T13:06:07.550Z,32.90
2022-08-23T13:08:51.049Z,32.90
2022-08-23T13:11:22.874Z,33.60
2022-08-23T13:13:51.119Z,40.10
2022-08-23T13:16:28.487Z,42.10
2022-08-23T13:19:14.868Z,40.60
2022-08-23T13:21:43.169Z,36.00
2022-08-23T13:24:38.313Z,37.30
2022-08-23T13:27:13.998Z,30.10
2022-08-23T13:29:55.279Z,33.70
2022-08-23T13:32:28.333Z,41.30
2022-08-23T13:35:34.103Z,46.70
2022-08-23T13:38:08.308Z,47.20
2022-08-23T13:41:14.098Z,48.30
2022-08-23T13:43:45.184Z,39.10
2022-08-23T13:46:23.174Z,39.20
2022-08-23T13:48:57.276Z,36.40
2022-08-23T13:51:37.078Z,37.50
2022-08-23T13:54:12.022Z,35.80
2022-08-23T13:56:49.817Z,34.80
2022-08-23T13:59:39.753Z,35.60
2022-08-23T14:02:14.625Z,34.50
2022-08-23T14:04:43.044Z,36.90
2022-08-23T14:07:12.609Z,44.70
2022-08-23T14:09:41.678Z,41.30
2022-08-23T14:12:23.090Z,35.40
2022-08-23T14:14:51.518Z,39.10
2022-08-23T14:17:20.560Z,36.30
2022-08-23T14:22:39.051Z,37.30
2022-08-23T14:25:07.995Z,38.70
2022-08-23T14:27:38.714Z,42.20
2022-08-23T14:30:08.737Z,47.00
2022-08-23T14:32:38.878Z,42.30
2022-08-23T14:35:08.504Z,50.40
2022-08-23T14:40:29.895Z,48.50
2022-08-23T14:42:58.935Z,39.70
2022-08-23T14:45:27.638Z,46.50
2022-08-23T14:47:55.631Z,42.70
2022-08-23T14:50:23.582Z,51.30
2022-08-23T14:52:51.976Z,43.20
2022-08-23T14:55:24.385Z,50.20
2022-08-23T14:57:53.055Z,46.90
2022-08-23T15:00:21.253Z,50.40
2022-08-23T15:02:50.458Z,49.50
2022-08-23T15:05:19.675Z,33.00
2022-08-23T15:07:47.638Z,48.30
2022-08-23T15:13:27.359Z,30.80
2022-08-23T15:15:54.174Z,37.80
2022-08-23T15:18:22.925Z,46.90
2022-08-23T15:20:52.400Z,40.40
2022-08-23T15:23:21.361Z,32.30
2022-08-23T15:25:49.896Z,50.70
2022-08-23T15:28:21.399Z,41.40
2022-08-23T15:30:51.654Z,46.00
2022-08-23T15:33:24.709Z,40.10
2022-08-23T15:36:01.117Z,51.50
2022-08-23T15:38:31.677Z,41.80
2022-08-23T15:41:00.868Z,54.50
2022-08-23T15:43:34.168Z,49.20
2022-08-23T15:46:16.319Z,42.80
2022-08-23T15:48:53.651Z,43.00
2022-08-23T15:51:21.958Z,41.40
2022-08-23T15:53:50.144Z,60.00
2022-08-23T15:56:27.505Z,47.30
2022-08-23T15:58:56.196Z,46.50
2022-08-23T16:01:25.967Z,48.80
2022-08-23T16:03:54.526Z,44.10
2022-08-23T16:06:22.835Z,49.00
2022-08-23T16:08:53.035Z,44.60
2022-08-23T16:11:24.369Z,45.10
2022-08-23T16:13:55.764Z,43.70
2022-08-23T16:16:29.631Z,39.00
2022-08-23T16:18:59.445Z,45.30
2022-08-23T16:21:30.590Z,47.90
2022-08-23T16:23:59.938Z,49.50
2022-08-23T16:26:34.620Z,38.20
2022-08-23T16:29:07.289Z,46.30
2022-08-23T16:31:39.113Z,39.70
2022-08-23T16:34:12.135Z,47.80
2022-08-23T16:36:43.645Z,48.50
2022-08-23T16:39:12.888Z,38.50
2022-08-23T16:41:40.970Z,26.30
2022-08-23T16:44:08.984Z,25.10
2022-08-23T16:46:37.435Z,27.70
2022-08-23T16:49:05.350Z,26.40
2022-08-23T16:51:33.190Z,23.40
2022-08-23T16:54:02.209Z,20.90
2022-08-23T16:56:32.465Z,21.30
2022-08-23T16:59:00.514Z,17.90
2022-08-23T17:01:29.699Z,18.50
2022-08-23T17:03:57.864Z,19.30
2022-08-23T17:06:25.898Z,19.10
2022-08-23T17:08:54.461Z,25.40
2022-08-23T17:11:22.658Z,21.50
2022-08-23T17:13:53.351Z,16.60
2022-08-23T17:16:22.615Z,18.00
2022-08-23T17:18:51.291Z,18.60
2022-08-23T17:21:22.183Z,19.50
2022-08-23T17:23:50.195Z,16.10
2022-08-23T17:26:18.714Z,17.20
2022-08-23T17:28:46.970Z,20.20
2022-08-23T17:31:16.338Z,19.50
2022-08-23T17:33:44.315Z,15.10
2022-08-23T17:36:32.798Z,17.60
2022-08-23T17:39:02.525Z,14.10
2022-08-23T17:41:30.525Z,16.50
2022-08-23T17:44:07.416Z,14.60
2022-08-23T17:46:37.414Z,22.80
2022-08-23T17:49:06.110Z,20.30
2022-08-23T17:51:36.835Z,19.60
2022-08-23T17:54:05.724Z,18.60
2022-08-23T17:56:33.715Z,16.80
2022-08-23T17:59:01.633Z,20.50
2022-08-23T18:01:30.832Z,15.10
2022-08-23T18:03:59.096Z,25.60
2022-08-23T18:06:28.544Z,16.60
2022-08-23T18:08:56.526Z,22.20
2022-08-23T18:11:25.647Z,19.80
2022-08-23T18:13:53.706Z,16.80
2022-08-23T18:16:22.196Z,24.90
2022-08-23T18:18:50.257Z,20.90
2022-08-23T18:21:19.705Z,17.30
2022-08-23T18:23:48.194Z,14.40
2022-08-23T18:26:34.917Z,18.00
2022-08-23T18:29:03.731Z,23.40
2022-08-23T18:31:32.644Z,21.70
2022-08-23T18:34:01.430Z,14.90
2022-08-23T18:36:30.115Z,15.10
2022-08-23T18:38:58.528Z,15.90
2022-08-23T18:41:26.710Z,14.40
2022-08-23T18:43:54.732Z,13.90
2022-08-23T18:46:23.504Z,17.70
2022-08-23T18:48:53.557Z,13.00
2022-08-23T18:51:22.829Z,12.40
2022-08-23T18:53:50.815Z,15.80
2022-08-23T18:56:19.295Z,18.90
2022-08-23T18:58:48.279Z,11.70
2022-08-23T19:01:39.810Z,15.40
2022-08-23T19:04:10.834Z,12.50
2022-08-23T19:06:40.641Z,12.60
2022-08-23T19:09:12.919Z,14.20
2022-08-23T19:11:42.844Z,14.10
2022-08-23T19:14:12.854Z,11.30
2022-08-23T19:16:47.236Z,10.00
2022-08-23T19:19:19.444Z,15.60
2022-08-23T19:21:49.439Z,11.60
2022-08-23T19:24:24.209Z,8.70
2022-08-23T19:26:52.756Z,13.00
2022-08-23T19:29:21.978Z,10.70
2022-08-23T19:31:50.500Z,12.80
2022-08-23T19:34:20.833Z,11.60
2022-08-23T19:36:56.720Z,8.50
2022-08-23T19:39:29.918Z,11.30
2022-08-23T19:41:58.397Z,14.50
2022-08-23T19:44:28.256Z,8.50
2022-08-23T19:46:57.036Z,14.70
2022-08-23T19:49:25.059Z,9.50
2022-08-23T19:51:53.115Z,11.70
2022-08-23T19:54:21.067Z,7.90
2022-08-23T19:56:54.924Z,12.10
2022-08-23T19:59:27.994Z,10.60
2022-08-23T20:01:58.265Z,9.70
2022-08-23T20:04:29.619Z,10.60
2022-08-23T20:06:59.712Z,12.90
2022-08-23T20:09:29.364Z,10.50
2022-08-23T20:11:58.301Z,10.30
2022-08-23T20:14:28.156Z,11.90
2022-08-23T20:16:57.028Z,12.00
2022-08-23T20:19:25.714Z,15.00
2022-08-23T20:22:16.894Z,8.70
2022-08-23T20:24:53.271Z,8.50
2022-08-23T20:27:30.646Z,11.90
2022-08-23T20:30:01.605Z,11.60
2022-08-23T20:32:31.397Z,8.40
2022-08-23T20:35:04.875Z,10.40
2022-08-23T20:37:33.120Z,13.10
2022-08-23T20:40:01.365Z,12.10
2022-08-23T20:42:29.588Z,9.80
2022-08-23T20:44:57.637Z,10.60
2022-08-23T20:47:25.735Z,9.90
2022-08-23T20:49:53.724Z,9.00
2022-08-23T20:52:21.857Z,9.00
2022-08-23T20:54:49.775Z,11.50
2022-08-23T20:57:18.313Z,9.50
2022-08-23T20:59:46.595Z,13.00
2022-08-23T21:02:14.673Z,9.80
2022-08-23T21:04:42.611Z,10.30
2022-08-23T21:07:11.875Z,9.60
2022-08-23T21:09:40.045Z,10.10
2022-08-23T21:12:08.139Z,12.40
2022-08-23T21:14:36.404Z,6.40
2022-08-23T21:17:04.256Z,10.40
2022-08-23T21:19:32.600Z,12.30
2022-08-23T21:22:01.269Z,8.10
2022-08-23T21:24:29.482Z,8.00
2022-08-23T21:26:57.674Z,11.50
2022-08-23T21:29:25.598Z,11.80
2022-08-23T21:31:53.899Z,12.80
2022-08-23T21:34:21.951Z,12.00
2022-08-23T21:36:51.577Z,14.90
2022-08-23T21:39:19.579Z,9.60
2022-08-23T21:41:51.174Z,8.80
2022-08-23T21:44:21.430Z,10.70
2022-08-23T21:46:49.504Z,9.50
2022-08-23T21:49:18.454Z,11.10
2022-08-23T21:51:47.310Z,10.20
2022-08-23T21:54:17.885Z,11.40
2022-08-23T21:56:46.539Z,12.50
2022-08-23T21:59:17.447Z,11.20
2022-08-23T22:01:46.122Z,9.10
2022-08-23T22:04:16.051Z,10.10
2022-08-23T22:06:46.989Z,12.60
2022-08-23T22:09:18.682Z,9.40
2022-08-23T22:11:48.973Z,10.60
2022-08-23T22:14:22.322Z,13.60
2022-08-23T22:16:55.049Z,9.80
2022-08-23T22:19:23.668Z,9.20
2022-08-23T22:21:52.921Z,11.00
2022-08-23T22:24:25.531Z,9.80
2022-08-23T22:26:55.784Z,9.70
2022-08-23T22:29:24.235Z,16.00
2022-08-23T22:31:52.738Z,8.30
2022-08-23T22:34:20.717Z,8.30
2022-08-23T22:36:52.441Z,12.00
2022-08-23T22:39:23.157Z,10.40
2022-08-23T22:41:51.374Z,12.00
2022-08-23T22:44:19.463Z,9.10
2022-08-23T22:46:47.790Z,9.40
2022-08-23T22:49:16.119Z,10.70
2022-08-23T22:51:44.724Z,10.30
2022-08-23T22:54:15.050Z,11.20
2022-08-23T22:56:46.895Z,9.10
2022-08-23T22:59:16.286Z,9.90
2022-08-23T23:01:52.007Z,9.10
2022-08-23T23:04:22.669Z,11.00
2022-08-23T23:06:52.087Z,10.10
2022-08-23T23:09:20.033Z,10.60
2022-08-23T23:11:48.950Z,11.20
2022-08-23T23:14:18.995Z,9.70
2022-08-23T23:16:49.714Z,9.40
2022-08-23T23:19:40.067Z,12.60
2022-08-23T23:22:08.861Z,11.90
2022-08-23T23:24:39.140Z,10.40
2022-08-23T23:27:07.960Z,13.50
2022-08-23T23:29:36.210Z,10.10
2022-08-23T23:32:05.200Z,11.60
2022-08-23T23:34:33.186Z,12.20
2022-08-23T23:37:01.126Z,11.10
2022-08-23T23:39:29.004Z,9.90
2022-08-23T23:41:57.396Z,12.60
2022-08-23T23:44:31.528Z,14.00
2022-08-23T23:47:01.703Z,13.20
2022-08-23T23:49:32.440Z,9.50
2022-08-23T23:52:04.841Z,11.50
2022-08-23T23:54:34.136Z,10.60
2022-08-23T23:57:04.519Z,14.50
2022-08-23T23:59:32.804Z,13.20
